createdAt,value
2022-12-27T00:01:56.807Z,101259.06
2022-12-27T00:04:25.765Z,101254.52
2022-12-27T00:06:54.501Z,101254.33
2022-12-27T00:09:23.438Z,101250.09
2022-12-27T00:11:57.971Z,101253.09
2022-12-27T00:14:28.501Z,101248.86
2022-12-27T00:16:57.175Z,101244.80
2022-12-27T00:19:26.261Z,101242.48
2022-12-27T00:21:54.756Z,101240.75
2022-12-27T00:24:23.299Z,101243.52
2022-12-27T00:26:51.870Z,101243.92
2022-12-27T00:29:20.667Z,101247.08
2022-12-27T00:31:49.268Z,101242.63
2022-12-27T00:34:17.933Z,101245.29
2022-12-27T00:36:46.586Z,101245.44
2022-12-27T00:39:15.278Z,101244.71
2022-12-27T00:41:43.683Z,101245.42
2022-12-27T00:44:12.297Z,101242.41
2022-12-27T00:46:40.845Z,101245.07
2022-12-27T00:49:09.520Z,101249.31
2022-12-27T00:51:38.186Z,101246.31
2022-12-27T00:54:07.834Z,101243.83
2022-12-27T00:56:36.522Z,101238.54
2022-12-27T00:59:05.913Z,101239.98
2022-12-27T01:01:37.079Z,101239.45
2022-12-27T01:04:06.281Z,101235.93
2022-12-27T01:06:35.789Z,101236.41
2022-12-27T01:09:05.852Z,101231.00
2022-12-27T01:11:34.657Z,101235.57
2022-12-27T01:14:06.146Z,101242.87
2022-12-27T01:16:35.065Z,101242.54
2022-12-27T01:19:03.691Z,101243.30
2022-12-27T01:21:32.350Z,101247.22
2022-12-27T01:24:00.948Z,101242.09
2022-12-27T01:26:29.737Z,101242.63
2022-12-27T01:28:58.368Z,101241.22
2022-12-27T01:31:28.583Z,101242.29
2022-12-27T01:33:59.423Z,101236.09
2022-12-27T01:36:30.665Z,101234.85
2022-12-27T01:39:00.901Z,101227.81
2022-12-27T01:41:52.920Z,101230.27
2022-12-27T01:44:44.068Z,101222.19
2022-12-27T01:47:12.607Z,101217.78
2022-12-27T01:49:56.226Z,101211.28
2022-12-27T01:52:33.227Z,101209.55
2022-12-27T01:55:29.766Z,101211.59
2022-12-27T01:58:23.097Z,101212.33
2022-12-27T02:00:52.666Z,101210.77
2022-12-27T02:03:59.305Z,101209.34
2022-12-27T02:06:31.498Z,101200.02
2022-12-27T02:09:03.134Z,101197.19
2022-12-27T02:11:57.711Z,101195.98
2022-12-27T02:14:39.164Z,101183.23
2022-12-27T02:17:32.620Z,101182.55
2022-12-27T02:20:18.030Z,101174.77
2022-12-27T02:23:45.455Z,101166.84
2022-12-27T02:26:48.168Z,101165.49
2022-12-27T02:29:57.994Z,101168.25
2022-12-27T02:32:43.147Z,101161.89
2022-12-27T02:35:34.005Z,101162.05
2022-12-27T02:38:28.606Z,101169.44
2022-12-27T02:41:19.007Z,101168.23
2022-12-27T02:44:06.872Z,101168.08
2022-12-27T02:46:54.283Z,101167.87
2022-12-27T02:49:55.917Z,101162.94
2022-12-27T02:53:11.429Z,101155.38
2022-12-27T02:56:18.364Z,101144.80
2022-12-27T02:59:17.924Z,101145.34
2022-12-27T03:02:17.283Z,101141.48
2022-12-27T03:05:31.207Z,101135.31
2022-12-27T03:08:31.487Z,101134.13
2022-12-27T03:11:20.978Z,101122.16
2022-12-27T03:14:37.066Z,101123.64
2022-12-27T03:17:16.288Z,101122.80
2022-12-27T03:20:11.906Z,101126.60
2022-12-27T03:23:03.490Z,101117.48
2022-12-27T03:25:36.169Z,101116.94
2022-12-27T03:28:30.702Z,101112.19
2022-12-27T03:31:51.959Z,101108.33
2022-12-27T03:34:32.352Z,101105.33
2022-12-27T03:37:25.954Z,101102.15
2022-12-27T03:40:27.029Z,101096.35
2022-12-27T03:43:11.492Z,101094.23
2022-12-27T03:46:14.127Z,101089.12
2022-12-27T03:48:52.377Z,101095.70
2022-12-27T03:51:23.858Z,101101.48
2022-12-27T03:54:01.274Z,101103.41
2022-12-27T03:56:30.395Z,101097.27
2022-12-27T03:59:01.216Z,101098.86
2022-12-27T04:01:30.586Z,101100.50
2022-12-27T04:03:59.159Z,101098.61
2022-12-27T04:06:28.128Z,101093.68
2022-12-27T04:09:14.996Z,101100.41
2022-12-27T04:12:02.138Z,101103.95
2022-12-27T04:14:48.925Z,101108.20
2022-12-27T04:17:37.255Z,101106.28
2022-12-27T04:20:42.396Z,101104.67
2022-12-27T04:23:29.786Z,101103.83
2022-12-27T04:26:16.702Z,101102.28
2022-12-27T04:29:30.743Z,101098.98
2022-12-27T04:32:17.756Z,101101.81
2022-12-27T04:34:48.791Z,101106.75
2022-12-27T04:37:20.137Z,101108.88
2022-12-27T04:40:13.466Z,101111.94
2022-12-27T04:43:04.917Z,101121.30
2022-12-27T04:45:52.557Z,101125.39
2022-12-27T04:48:40.001Z,101124.54
2022-12-27T04:51:28.114Z,101124.38
2022-12-27T04:54:15.208Z,101129.48
2022-12-27T04:56:43.848Z,101117.99
2022-12-27T05:00:08.354Z,101116.42
2022-12-27T05:02:37.507Z,101108.14
2022-12-27T05:05:08.350Z,101104.06
2022-12-27T05:07:57.306Z,101094.83
2022-12-27T05:10:46.538Z,101098.89
2022-12-27T05:13:33.476Z,101096.55
2022-12-27T05:16:02.661Z,101095.31
2022-12-27T05:18:31.342Z,101099.66
2022-12-27T05:21:05.880Z,101096.69
2022-12-27T05:23:53.873Z,101093.35
2022-12-27T05:26:26.573Z,101089.81
2022-12-27T05:28:58.500Z,101096.05
2022-12-27T05:31:29.813Z,101094.63
2022-12-27T05:33:59.653Z,101093.94
2022-12-27T05:36:28.350Z,101091.80
2022-12-27T05:38:58.124Z,101090.71
2022-12-27T05:41:27.773Z,101088.26
2022-12-27T05:44:02.074Z,101089.88
2022-12-27T05:46:35.940Z,101088.44
2022-12-27T05:49:04.753Z,101085.10
2022-12-27T05:51:33.509Z,101080.34
2022-12-27T05:54:02.143Z,101073.09
2022-12-27T05:56:30.962Z,101069.73
2022-12-27T05:58:59.828Z,101071.84
2022-12-27T06:02:07.467Z,101073.95
2022-12-27T06:04:39.204Z,101078.89
2022-12-27T06:07:09.883Z,101072.72
2022-12-27T06:09:38.618Z,101071.80
2022-12-27T06:12:07.576Z,101072.83
2022-12-27T06:14:36.213Z,101077.83
2022-12-27T06:17:04.873Z,101085.05
2022-12-27T06:19:33.743Z,101083.10
2022-12-27T06:22:02.607Z,101079.92
2022-12-27T06:24:31.454Z,101083.98
2022-12-27T06:27:00.108Z,101088.61
2022-12-27T06:29:29.436Z,101082.80
2022-12-27T06:31:58.307Z,101083.52
2022-12-27T06:34:26.995Z,101084.58
2022-12-27T06:36:55.686Z,101086.00
2022-12-27T06:39:24.313Z,101090.75
2022-12-27T06:41:55.475Z,101095.85
2022-12-27T06:44:25.401Z,101095.70
2022-12-27T06:46:54.169Z,101098.19
2022-12-27T06:49:22.809Z,101099.09
2022-12-27T06:51:59.086Z,101096.46
2022-12-27T06:54:29.411Z,101091.48
2022-12-27T06:56:58.089Z,101088.30
2022-12-27T06:59:28.391Z,101084.59
2022-12-27T07:01:57.238Z,101083.94
2022-12-27T07:04:26.732Z,101084.81
2022-12-27T07:06:55.432Z,101085.73
2022-12-27T07:09:23.988Z,101087.52
2022-12-27T07:11:54.213Z,101087.19
2022-12-27T07:14:22.943Z,101087.75
2022-12-27T07:16:51.796Z,101089.50
2022-12-27T07:19:20.440Z,101090.20
2022-12-27T07:21:49.707Z,101087.91
2022-12-27T07:24:18.447Z,101080.90
2022-12-27T07:26:47.111Z,101079.87
2022-12-27T07:29:15.837Z,101081.58
2022-12-27T07:31:44.597Z,101084.97
2022-12-27T07:34:13.375Z,101081.05
2022-12-27T07:36:42.261Z,101074.70
2022-12-27T07:39:11.213Z,101078.05
2022-12-27T07:41:39.950Z,101084.92
2022-12-27T07:44:10.082Z,101091.80
2022-12-27T07:46:38.750Z,101092.33
2022-12-27T07:49:09.955Z,101090.00
2022-12-27T07:51:42.621Z,101086.52
2022-12-27T07:54:11.357Z,101092.70
2022-12-27T07:56:39.984Z,101105.45
2022-12-27T07:59:13.312Z,101108.66
2022-12-27T08:02:32.170Z,101106.60
2022-12-27T08:05:01.342Z,101104.83
2022-12-27T08:07:30.171Z,101109.64
2022-12-27T08:09:58.795Z,101110.52
2022-12-27T08:12:27.496Z,101112.30
2022-12-27T08:14:56.241Z,101111.77
2022-12-27T08:17:27.498Z,101118.17
2022-12-27T08:19:57.012Z,101125.41
2022-12-27T08:22:25.933Z,101125.41
2022-12-27T08:24:56.394Z,101120.49
2022-12-27T08:27:25.533Z,101120.88
2022-12-27T08:29:54.303Z,101123.76
2022-12-27T08:32:23.168Z,101130.16
2022-12-27T08:34:51.832Z,101137.05
2022-12-27T08:37:20.425Z,101138.11
2022-12-27T08:39:49.092Z,101128.21
2022-12-27T08:42:17.877Z,101120.45
2022-12-27T08:44:46.739Z,101113.21
2022-12-27T08:47:15.386Z,101112.66
2022-12-27T08:49:44.139Z,101112.66
2022-12-27T08:52:12.840Z,101105.96
2022-12-27T08:54:41.568Z,101097.64
2022-12-27T08:57:10.100Z,101093.95
2022-12-27T08:59:38.701Z,101097.65
2022-12-27T09:02:07.739Z,101093.96
2022-12-27T09:04:37.293Z,101089.20
2022-12-27T09:07:06.270Z,101086.91
2022-12-27T09:09:35.026Z,101085.68
2022-12-27T09:12:08.084Z,101083.05
2022-12-27T09:14:38.190Z,101081.14
2022-12-27T09:17:09.182Z,101074.08
2022-12-27T09:19:37.891Z,101076.23
2022-12-27T09:22:06.753Z,101073.05
2022-12-27T09:24:35.594Z,101071.65
2022-12-27T09:30:20.037Z,101069.71
2022-12-27T09:32:48.731Z,101074.31
2022-12-27T09:35:17.468Z,101059.29
2022-12-27T09:37:46.143Z,101051.34
2022-12-27T09:40:20.088Z,101051.52
2022-12-27T09:43:20.662Z,101050.82
2022-12-27T09:45:56.265Z,101041.61
2022-12-27T09:48:38.775Z,101034.36
2022-12-27T09:51:42.419Z,101038.60
2022-12-27T09:54:16.476Z,101035.05
2022-12-27T09:57:18.301Z,101029.39
2022-12-27T09:59:42.935Z,101019.83
2022-12-27T10:02:34.234Z,101020.88
2022-12-27T10:05:21.654Z,101030.28
2022-12-27T10:08:06.992Z,101034.88
2022-12-27T10:11:08.617Z,101029.56
2022-12-27T10:14:04.463Z,101024.07
2022-12-27T10:16:49.152Z,101034.14
2022-12-27T10:19:39.264Z,101039.44
2022-12-27T10:22:13.376Z,101034.48
2022-12-27T10:24:49.259Z,101041.92
2022-12-27T10:27:29.922Z,101047.94
2022-12-27T10:30:01.789Z,101042.82
2022-12-27T10:32:30.576Z,101042.11
2022-12-27T10:35:02.444Z,101036.98
2022-12-27T10:37:31.658Z,101035.39
2022-12-27T10:40:10.531Z,101031.32
2022-12-27T10:43:17.484Z,101029.89
2022-12-27T10:45:46.178Z,101021.37
2022-12-27T10:48:28.808Z,101020.98
2022-12-27T10:51:09.433Z,101029.45
2022-12-27T10:53:39.544Z,101027.84
2022-12-27T10:56:09.948Z,101022.33
2022-12-27T10:58:54.609Z,101013.99
2022-12-27T11:01:32.681Z,101015.23
2022-12-27T11:04:24.236Z,101018.58
2022-12-27T11:07:18.749Z,101024.92
2022-12-27T11:09:51.112Z,101021.48
2022-12-27T11:12:25.034Z,101017.39
2022-12-27T11:15:17.936Z,101024.03
2022-12-27T11:17:52.572Z,101019.13
2022-12-27T11:20:35.187Z,101015.32
2022-12-27T11:23:10.627Z,101011.66
2022-12-27T11:25:55.725Z,101012.29
2022-12-27T11:28:37.807Z,101006.38
2022-12-27T11:31:17.069Z,101005.95
2022-12-27T11:33:54.907Z,101012.85
2022-12-27T11:36:40.957Z,101021.17
2022-12-27T11:39:44.671Z,101019.52
2022-12-27T11:42:45.168Z,101017.56
2022-12-27T11:45:23.502Z,101012.98
2022-12-27T11:48:26.291Z,101009.14
2022-12-27T11:51:40.645Z,101008.47
2022-12-27T11:54:54.450Z,101010.45
2022-12-27T11:58:07.538Z,101014.17
2022-12-27T12:01:25.866Z,101013.94
2022-12-27T12:04:19.542Z,101012.84
2022-12-27T12:07:25.508Z,101010.88
2022-12-27T12:10:11.551Z,101007.00
2022-12-27T12:13:14.158Z,101006.30
2022-12-27T12:15:57.896Z,101004.99
2022-12-27T12:18:58.785Z,101009.79
2022-12-27T12:22:07.017Z,101008.27
2022-12-27T12:25:25.367Z,101005.51
2022-12-27T12:32:02.534Z,101011.64
2022-12-27T12:34:51.803Z,101015.85
2022-12-27T12:37:45.275Z,101021.70
2022-12-27T12:41:07.957Z,101025.38
2022-12-27T12:44:21.563Z,101027.22
2022-12-27T12:47:03.496Z,101028.44
2022-12-27T12:49:47.526Z,101029.88
2022-12-27T12:52:47.585Z,101031.45
2022-12-27T12:55:50.803Z,101030.77
2022-12-27T12:59:00.414Z,101032.67
2022-12-27T13:02:04.423Z,101036.01
2022-12-27T13:05:30.485Z,101042.01
2022-12-27T13:08:23.870Z,101052.84
2022-12-27T13:11:19.189Z,101176.80
2022-12-27T13:14:39.959Z,101167.13
2022-12-27T13:17:30.798Z,101183.35
2022-12-27T13:20:23.525Z,101196.67
2022-12-27T13:22:58.616Z,101208.49
2022-12-27T13:26:02.371Z,101210.40
2022-12-27T13:29:20.779Z,101206.89
2022-12-27T13:32:05.930Z,101210.08
2022-12-27T13:34:47.072Z,101227.92
2022-12-27T13:37:15.607Z,101230.23
2022-12-27T13:40:30.684Z,101247.67
2022-12-27T13:43:30.274Z,101254.28
2022-12-27T13:46:14.089Z,101249.16
2022-12-27T13:52:41.109Z,101258.79
2022-12-27T13:56:53.535Z,101258.14
2022-12-27T13:59:44.100Z,101261.20
2022-12-27T14:02:30.610Z,101272.46
2022-12-27T14:05:02.741Z,101284.77
2022-12-27T14:11:00.834Z,101300.44
2022-12-27T14:13:56.821Z,101304.23
2022-12-27T14:17:11.283Z,101299.09
2022-12-27T14:19:49.093Z,101302.50
2022-12-27T14:22:50.967Z,101312.46
2022-12-27T14:25:52.183Z,101324.57
2022-12-27T14:28:45.504Z,101326.73
2022-12-27T14:31:59.255Z,101338.65
2022-12-27T14:34:59.354Z,101352.88
2022-12-27T14:37:45.217Z,101375.08
2022-12-27T14:40:57.603Z,101378.10
2022-12-27T14:44:06.902Z,101379.71
2022-12-27T14:46:57.092Z,101375.80
2022-12-27T14:50:34.144Z,101377.20
2022-12-27T14:53:54.745Z,101375.08
2022-12-27T14:56:41.327Z,101378.48
2022-12-27T14:59:31.864Z,101384.35
2022-12-27T15:02:41.471Z,101391.45
2022-12-27T15:06:07.461Z,101399.96
2022-12-27T15:09:25.279Z,101400.52
2022-12-27T15:12:30.957Z,101402.29
2022-12-27T15:15:08.863Z,101401.02
2022-12-27T15:18:00.170Z,101411.48
2022-12-27T15:20:34.790Z,101420.02
2022-12-27T15:23:35.766Z,101420.71
2022-12-27T15:27:03.409Z,101408.09
2022-12-27T15:29:36.223Z,101419.48
2022-12-27T15:32:47.049Z,101429.63
2022-12-27T15:35:59.037Z,101438.52
2022-12-27T15:38:39.686Z,101441.54
2022-12-27T15:41:14.230Z,101450.61
2022-12-27T15:43:55.243Z,101455.94
2022-12-27T15:46:36.651Z,101451.52
2022-12-27T15:49:26.805Z,101460.73
2022-12-27T15:52:10.483Z,101467.48
2022-12-27T15:54:59.768Z,101479.92
2022-12-27T15:57:39.078Z,101485.27
2022-12-27T16:00:23.057Z,101495.27
2022-12-27T16:03:01.244Z,101504.52
2022-12-27T16:05:48.353Z,101509.84
2022-12-27T16:08:40.840Z,101520.19
2022-12-27T16:11:14.172Z,101531.90
2022-12-27T16:14:27.128Z,101533.52
2022-12-27T16:17:19.651Z,101551.63
2022-12-27T16:20:06.404Z,101551.29
2022-12-27T16:22:40.257Z,101562.31
2022-12-27T16:25:32.013Z,101564.27
2022-12-27T16:28:24.294Z,101573.86
2022-12-27T16:30:56.831Z,101575.11
2022-12-27T16:33:33.913Z,101575.28
2022-12-27T16:36:24.725Z,101581.49
2022-12-27T16:39:11.863Z,101588.58
2022-12-27T16:41:58.658Z,101600.29
2022-12-27T16:44:36.236Z,101609.72
2022-12-27T16:47:31.980Z,101617.52
2022-12-27T16:50:41.010Z,101627.80
2022-12-27T16:53:32.774Z,101632.76
2022-12-27T16:56:16.740Z,101635.60
2022-12-27T16:58:46.140Z,101636.80
2022-12-27T17:01:36.109Z,101643.89
2022-12-27T17:04:05.143Z,101653.64
2022-12-27T17:06:36.878Z,101658.59
2022-12-27T17:09:08.665Z,101665.52
2022-12-27T17:12:02.350Z,101666.73
2022-12-27T17:14:38.960Z,101671.48
2022-12-27T17:17:23.411Z,101671.64
2022-12-27T17:20:06.885Z,101679.81
2022-12-27T17:22:39.646Z,101689.92
2022-12-27T17:25:15.893Z,101690.44
2022-12-27T17:28:28.938Z,101687.23
2022-12-27T17:31:42.706Z,101689.70
2022-12-27T17:34:26.331Z,101694.65
2022-12-27T17:37:15.594Z,101696.91
2022-12-27T17:40:05.342Z,101703.29
2022-12-27T17:43:49.962Z,101700.41
2022-12-27T17:47:18.783Z,101708.74
2022-12-27T17:49:48.161Z,101715.61
2022-12-27T17:52:44.087Z,101718.77
2022-12-27T17:55:45.678Z,101721.77
2022-12-27T17:58:17.099Z,101723.15
2022-12-27T18:01:02.396Z,101725.42
2022-12-27T18:03:41.948Z,101727.02
2022-12-27T18:06:12.383Z,101728.61
2022-12-27T18:08:41.159Z,101733.70
2022-12-27T18:11:11.315Z,101734.84
2022-12-27T18:13:50.826Z,101740.74
2022-12-27T18:16:37.842Z,101742.88
2022-12-27T18:19:07.691Z,101749.23
2022-12-27T18:21:36.312Z,101749.04
2022-12-27T18:24:25.840Z,101758.41
2022-12-27T18:27:07.413Z,101756.40
2022-12-27T18:29:39.271Z,101757.31
2022-12-27T18:32:12.511Z,101762.94
2022-12-27T18:34:59.374Z,101767.00
2022-12-27T18:37:28.624Z,101771.80
2022-12-27T18:40:02.264Z,101773.54
2022-12-27T18:42:41.300Z,101772.99
2022-12-27T18:45:22.663Z,101775.14
2022-12-27T18:47:54.886Z,101770.80
2022-12-27T18:50:27.988Z,101771.36
2022-12-27T18:53:07.068Z,101778.61
2022-12-27T18:55:36.367Z,101780.59
2022-12-27T18:58:20.882Z,101782.52
2022-12-27T19:01:02.379Z,101788.02
2022-12-27T19:03:36.545Z,101794.93
2022-12-27T19:06:13.572Z,101798.63
2022-12-27T19:08:52.687Z,101804.48
2022-12-27T19:11:34.553Z,101808.58
2022-12-27T19:14:05.656Z,101810.48
2022-12-27T19:16:35.955Z,101809.38
2022-12-27T19:19:16.616Z,101808.45
2022-12-27T19:21:45.607Z,101810.73
2022-12-27T19:24:24.116Z,101814.27
2022-12-27T19:30:46.699Z,101819.77
2022-12-27T19:33:30.860Z,101827.73
2022-12-27T19:36:00.662Z,101835.54
2022-12-27T19:38:32.101Z,101835.71
2022-12-27T19:41:04.065Z,101845.75
2022-12-27T19:43:44.398Z,101842.95
2022-12-27T19:46:15.281Z,101849.89
2022-12-27T19:48:44.059Z,101851.45
2022-12-27T19:51:19.240Z,101851.05
2022-12-27T19:53:57.681Z,101854.02
2022-12-27T19:56:27.292Z,101852.92
2022-12-27T19:58:57.110Z,101854.55
2022-12-27T20:01:25.880Z,101850.10
2022-12-27T20:03:54.547Z,101853.56
2022-12-27T20:06:26.859Z,101855.10
2022-12-27T20:08:57.006Z,101860.58
2022-12-27T20:11:28.065Z,101859.21
2022-12-27T20:13:56.571Z,101863.45
2022-12-27T20:16:25.422Z,101857.08
2022-12-27T20:18:54.140Z,101866.11
2022-12-27T20:21:23.353Z,101867.48
2022-12-27T20:23:52.215Z,101876.50
2022-12-27T20:26:25.427Z,101874.67
2022-12-27T20:28:55.304Z,101882.30
2022-12-27T20:31:23.857Z,101884.95
2022-12-27T20:33:55.579Z,101890.94
2022-12-27T20:36:24.758Z,101894.98
2022-12-27T20:38:53.658Z,101897.00
2022-12-27T20:41:23.076Z,101892.13
2022-12-27T20:43:57.708Z,101895.80
2022-12-27T20:46:26.641Z,101890.27
2022-12-27T20:48:57.241Z,101896.57
2022-12-27T20:51:28.485Z,101903.46
2022-12-27T20:53:59.219Z,101904.64
2022-12-27T20:56:28.438Z,101907.30
2022-12-27T20:58:57.699Z,101902.35
2022-12-27T21:01:27.291Z,101905.98
2022-12-27T21:03:56.991Z,101914.27
2022-12-27T21:06:29.338Z,101922.66
2022-12-27T21:08:58.774Z,101923.70
2022-12-27T21:11:34.216Z,101927.83
2022-12-27T21:14:05.288Z,101930.12
2022-12-27T21:16:35.334Z,101930.50
2022-12-27T21:19:05.356Z,101929.94
2022-12-27T21:21:36.862Z,101932.23
2022-12-27T21:24:08.586Z,101937.98
2022-12-27T21:26:40.037Z,101937.18
2022-12-27T21:29:10.361Z,101950.02
2022-12-27T21:31:39.112Z,101941.79
2022-12-27T21:34:08.066Z,101947.02
2022-12-27T21:36:38.580Z,101952.41
2022-12-27T21:39:07.784Z,101955.17
2022-12-27T21:41:39.566Z,101955.95
2022-12-27T21:44:08.146Z,101958.14
2022-12-27T21:46:42.772Z,101957.13
2022-12-27T21:49:14.762Z,101958.47
2022-12-27T21:53:48.632Z,101953.05
2022-12-27T21:56:18.720Z,101959.30
2022-12-27T21:58:47.852Z,101963.40
2022-12-27T22:01:23.068Z,101969.04
2022-12-27T22:03:54.181Z,101972.69
2022-12-27T22:06:29.713Z,101965.46
2022-12-27T22:09:02.026Z,101969.77
2022-12-27T22:11:32.023Z,101971.21
2022-12-27T22:14:01.757Z,101976.95
2022-12-27T22:16:34.828Z,101982.60
2022-12-27T22:19:08.394Z,101977.48
2022-12-27T22:21:39.580Z,101978.58
2022-12-27T22:24:13.197Z,101984.95
2022-12-27T22:26:43.116Z,101994.35
2022-12-27T22:29:13.164Z,102001.48
2022-12-27T22:31:43.055Z,102000.34
2022-12-27T22:34:11.688Z,102001.70
2022-12-27T22:36:40.429Z,102006.22
2022-12-27T22:39:09.856Z,102007.88
2022-12-27T22:41:38.606Z,102007.40
2022-12-27T22:44:12.565Z,102008.16
2022-12-27T22:47:24.916Z,102013.34
2022-12-27T22:49:31.886Z,102012.33
2022-12-27T22:52:00.659Z,102014.06
2022-12-27T22:55:04.028Z,102013.65
2022-12-27T22:57:18.258Z,102015.34
2022-12-27T22:59:47.391Z,102018.75
2022-12-27T23:02:16.402Z,102016.17
2022-12-27T23:04:45.224Z,102020.15
2022-12-27T23:07:13.822Z,102018.45
2022-12-27T23:09:43.715Z,102023.46
2022-12-27T23:12:13.691Z,102025.02
2022-12-27T23:14:42.423Z,102025.14
2022-12-27T23:17:10.977Z,102026.15
2022-12-27T23:19:39.915Z,102028.39
2022-12-27T23:22:08.672Z,102029.20
2022-12-27T23:24:37.354Z,102030.05
2022-12-27T23:27:06.005Z,102030.25
2022-12-27T23:29:34.624Z,102036.69
2022-12-27T23:32:03.334Z,102036.21
2022-12-27T23:34:31.918Z,102038.82
2022-12-27T23:37:01.344Z,102037.00
2022-12-27T23:39:29.979Z,102040.25
2022-12-27T23:41:59.026Z,102042.45
2022-12-27T23:44:33.995Z,102040.80
2022-12-27T23:47:07.691Z,102041.71
2022-12-27T23:49:36.415Z,102037.02
2022-12-27T23:52:05.433Z,102037.06
2022-12-27T23:54:34.128Z,102033.38
2022-12-27T23:57:20.420Z,102041.36
2022-12-27T23:59:51.924Z,102042.75
